International Virtual Aviation Organisation

Russian Federation and Kazakhstan MCD

 
UAOO 280930Z 31006MPS 9999 OVC008 M03/M05 Q1041 R23/490345 NOSIG RMK QFE768/1024
QNH:(hPa/inHg/mmHg)1041 / 30.74 / 781
QFE:(hPa/inHg/mmHg)1025 / 30.27 / 769
Temperature-3
Dew Point-5
Visibility> 10000
Weather
Cloud CoverOVC (800);
Transition Height2074 m./7300 ft.
Transition LevelFL80
SQUAWK